Home   Weather   Latvia   Riga   Past weeks
Flag for Latvia

Past Weather in Riga, Latvia — Yesterday and Last 2 Weeks

Currently: 48 °F. Sunny. (Weather station: Riga Airport, Latvia). See more current weather

Past Weather in Riga — Graph

°F

Riga Temperature Yesterday

Maximum temperature yesterday: 59 °F (at 7:20 pm)
Minimum temperature yesterday: 30 °F (at 3:50 am)
Average temperature yesterday: 48 °F

High & Low Weather Summary for the Past Weeks

  Temperature Humidity Pressure
High 77 °F (May 3, 1:20 pm) 100% (May 1, 3:50 am) 30.36 "Hg (May 1, 3:50 am)
Low 28 °F (Apr 30, 2:50 am) 20% (May 8, 9:20 pm) 29.36 "Hg (Apr 25, 3:20 pm)
Average 48 °F 65% 29.95 "Hg
* Reported Apr 24 5:20 am — May 9 5:20 am, Riga. Weather by CustomWeather, © 2026

Note: Actual official high and low records may vary slightly from our data, if they occured in-between our weather recording intervals... More about our weather records

Riga Weather History for the Previous 24 Hours

Scroll right to see more
  Conditions Comfort    
Time   Temp Weather Wind   Humidity Barometer Visibility
5:20 am
Sat, May 9
48 °F Passing clouds. 12 mph 43% 30.21 "Hg N/A
4:50 am 48 °F Clear. 12 mph 43% 30.21 "Hg 10 mi
4:20 am 48 °F Clear. 9 mph 43% 30.21 "Hg 10 mi
3:50 am 48 °F Clear. 9 mph 43% 30.21 "Hg 10 mi
3:20 am 48 °F Clear. 9 mph 43% 30.21 "Hg 10 mi
2:50 am 50 °F Clear. 9 mph 37% 30.21 "Hg 10 mi
2:20 am 50 °F Clear. 10 mph 37% 30.21 "Hg 10 mi
1:50 am 50 °F Clear. 10 mph 37% 30.21 "Hg 10 mi
1:20 am 50 °F Clear. 10 mph 35% 30.21 "Hg 10 mi
12:50 am 52 °F Clear. 10 mph 30% 30.21 "Hg 10 mi
12:20 am 52 °F Clear. 12 mph 28% 30.21 "Hg 10 mi
11:50 pm
Fri, May 8
52 °F Clear. 12 mph 28% 30.21 "Hg 10 mi
11:20 pm 54 °F Clear. 14 mph 24% 30.18 "Hg 10 mi
10:50 pm 54 °F Clear. 12 mph 22% 30.18 "Hg 10 mi
10:20 pm 54 °F Clear. 13 mph 24% 30.18 "Hg 10 mi
9:50 pm 55 °F Clear. 13 mph 23% 30.18 "Hg 10 mi
9:20 pm 57 °F Clear. 15 mph 20% 30.18 "Hg 10 mi
8:50 pm 57 °F Sunny. 12 mph 21% 30.15 "Hg 10 mi
8:20 pm 57 °F Sunny. 14 mph 21% 30.15 "Hg 10 mi
7:50 pm 59 °F Sunny. 13 mph 25% 30.15 "Hg 10 mi
7:20 pm 59 °F Sunny. 13 mph 25% 30.15 "Hg 10 mi
6:50 pm 57 °F Passing clouds. 9 mph 39% 30.15 "Hg N/A
6:20 pm 57 °F Sunny. 9 mph 39% 30.15 "Hg 10 mi
5:50 pm 55 °F Sunny. 10 mph 47% 30.15 "Hg 10 mi
5:20 pm 55 °F Sunny. 10 mph 47% 30.15 "Hg 10 mi
4:50 pm 55 °F Sunny. 10 mph 44% 30.15 "Hg 10 mi
4:20 pm 57 °F Passing clouds. 10 mph 41% 30.15 "Hg N/A
3:50 pm 57 °F Sunny. 12 mph 41% 30.15 "Hg 10 mi
3:20 pm 57 °F Sunny. 14 mph 39% 30.18 "Hg 10 mi
2:50 pm 57 °F Sunny. 15 mph 39% 30.18 "Hg 10 mi
2:20 pm 57 °F Sunny. 16 mph 39% 30.15 "Hg 10 mi
1:50 pm 57 °F Sunny. 13 mph 41% 30.18 "Hg 10 mi
1:20 pm 55 °F Passing clouds. 15 mph 41% 30.18 "Hg N/A
12:50 pm 55 °F Passing clouds. 16 mph 41% 30.18 "Hg N/A
12:20 pm 55 °F Passing clouds. 16 mph 38% 30.18 "Hg N/A
11:50 am 55 °F Sunny. 15 mph 38% 30.18 "Hg 10 mi
11:20 am 57 °F Sunny. 16 mph 33% 30.18 "Hg 10 mi
10:50 am 54 °F Sunny. 13 mph 35% 30.18 "Hg 10 mi
10:20 am 54 °F Passing clouds. 13 mph 41% 30.18 "Hg N/A
9:50 am 52 °F Sunny. 16 mph 41% 30.18 "Hg 10 mi
9:20 am 52 °F Sunny. 13 mph 41% 30.18 "Hg 10 mi
8:50 am 48 °F Sunny. 10 mph 58% 30.18 "Hg 10 mi
8:20 am 46 °F Sunny. 9 mph 66% 30.15 "Hg 10 mi
7:50 am 46 °F Sunny. 7 mph 71% 30.15 "Hg 10 mi
7:20 am 43 °F Sunny. 1 mph 87% 30.15 "Hg 10 mi
6:50 am 34 °F Sunny. No wind 100% 30.15 "Hg 10 mi
6:20 am 32 °F Sunny. No wind 100% 30.12 "Hg 10 mi
Weather by CustomWeather, © 2026

See weather overview